Time;durP1;ratioP1;P1;durP2;ratioP2;P2;SDS_P1;SDS_P2;PMS_P1;PMS_P2;Temp;Humidity;BMP_temperature;BMP_pressure;BME280_temperature;BME280_humidity;BME280_pressure;Samples;Min_cycle;Max_cycle;Signal;HPM_P1;HPM_P2
2022/10/11 00:11:01;;;;;;;11.30;8.30;;;;;;;10.90;70.39;100429.38;30982180;28;97010;-64
2022/10/11 00:26:04;;;;;;;12.53;8.73;;;;;;;10.73;71.22;100444.56;30981532;28;97582;-62
2022/10/11 00:41:04;;;;;;;12.50;8.43;;;;;;;10.64;71.82;100456.19;30979187;28;97524;-65
2022/10/11 00:56:12;;;;;;;13.27;8.65;;;;;;;10.61;72.62;100460.00;30978141;28;96748;-64
2022/10/11 01:11:16;;;;;;;13.53;8.53;;;;;;;10.83;72.75;100469.19;30981622;28;96726;-66
2022/10/11 01:26:34;;;;;;;14.83;8.43;;;;;;;10.91;72.68;100475.56;30998623;28;96857;-65
2022/10/11 01:41:45;;;;;;;13.77;8.60;;;;;;;10.86;72.86;100477.88;30996256;28;96730;-62
2022/10/11 01:57:09;;;;;;;13.20;7.67;;;;;;;10.81;73.32;100481.00;30995554;28;96688;-64
2022/10/11 02:12:15;;;;;;;10.17;7.30;;;;;;;10.73;74.01;100500.50;30993485;28;97165;-62
2022/10/11 02:27:20;;;;;;;12.53;7.93;;;;;;;10.74;74.00;100515.47;30992332;28;96591;-65
2022/10/11 02:42:35;;;;;;;10.43;6.80;;;;;;;10.78;74.63;100545.31;30989936;28;96669;-63
2022/10/11 02:57:35;;;;;;;8.97;5.67;;;;;;;10.97;74.71;100565.50;30988618;28;96890;-62
2022/10/11 03:12:36;;;;;;;12.82;5.78;;;;;;;11.01;74.50;100570.34;30987351;28;99180;-63
2022/10/11 03:27:36;;;;;;;10.70;6.18;;;;;;;10.91;74.22;100595.50;30985479;28;97472;-62
2022/10/11 03:42:37;;;;;;;12.88;6.40;;;;;;;10.63;74.58;100614.38;30980151;28;105579;-66
2022/10/11 03:57:37;;;;;;;11.18;5.82;;;;;;;10.37;74.96;100647.19;30980474;28;96730;-63
2022/10/11 04:12:38;;;;;;;12.80;6.50;;;;;;;10.30;76.07;100656.78;30979172;28;96921;-63
2022/10/11 04:27:38;;;;;;;12.30;7.30;;;;;;;10.60;75.75;100678.63;30969236;28;96917;-62
2022/10/11 04:42:38;;;;;;;19.45;7.78;;;;;;;10.25;76.11;100685.69;30973079;28;96768;-62
2022/10/11 04:57:39;;;;;;;17.23;6.38;;;;;;;10.14;76.85;100710.75;30971629;28;98213;-62
2022/10/11 05:12:39;;;;;;;17.58;7.50;;;;;;;10.46;76.62;100728.81;30972010;28;96740;-63
2022/10/11 05:27:39;;;;;;;14.23;6.95;;;;;;;10.36;76.96;100756.56;30969128;28;111637;-65
2022/10/11 05:42:40;;;;;;;13.27;6.47;;;;;;;10.46;77.16;100776.78;30960253;28;109668;-63
2022/10/11 05:57:40;;;;;;;11.23;7.15;;;;;;;10.88;77.46;100809.03;30966306;28;112538;-63
2022/10/11 06:12:40;;;;;;;12.55;5.75;;;;;;;11.17;77.03;100838.88;30987498;28;111836;-66
2022/10/11 06:27:41;;;;;;;8.35;4.68;;;;;;;11.42;76.26;100865.66;30986923;28;104981;-62
2022/10/11 06:42:41;;;;;;;10.73;4.25;;;;;;;11.75;75.48;100891.66;30984245;28;97029;-60
2022/10/11 06:57:41;;;;;;;7.68;3.63;;;;;;;12.00;74.41;100916.63;30979344;28;115173;-61
2022/10/11 07:12:43;;;;;;;7.30;3.70;;;;;;;12.01;73.84;100932.53;30979925;28;110442;-62
2022/10/11 07:27:44;;;;;;;7.90;3.53;;;;;;;13.86;73.48;100965.16;30978963;28;96733;-62
2022/10/11 07:42:44;;;;;;;7.47;2.65;;;;;;;16.24;69.26;100974.13;30978226;28;116905;-65
2022/10/11 07:57:44;;;;;;;7.28;2.00;;;;;;;17.24;62.35;100994.00;30979229;28;117052;-64
2022/10/11 08:12:47;;;;;;;4.30;1.60;;;;;;;18.37;61.13;101002.97;30977144;28;101765;-60
2022/10/11 08:27:48;;;;;;;5.23;1.50;;;;;;;21.26;53.96;101013.00;30973553;28;96756;-64
2022/10/11 08:43:01;;;;;;;8.07;1.73;;;;;;;29.37;36.70;101028.41;30968374;28;96973;-65
2022/10/11 08:58:02;;;;;;;3.77;1.47;;;;;;;35.65;23.32;101038.13;30964382;28;97101;-64
2022/10/11 09:13:17;;;;;;;5.30;1.53;;;;;;;35.27;20.18;101046.88;30971244;28;96757;-59
2022/10/11 09:28:28;;;;;;;2.97;1.20;;;;;;;41.32;15.05;101049.19;30971685;28;96809;-62
2022/10/11 09:43:29;;;;;;;6.87;1.47;;;;;;;45.21;12.21;101046.84;30988647;28;97233;-67
2022/10/11 09:58:32;;;;;;;4.10;1.33;;;;;;;38.51;15.28;101034.66;30989249;28;97496;-65
2022/10/11 10:13:42;;;;;;;4.87;1.17;;;;;;;41.23;13.51;101042.97;30988158;28;97168;-61
2022/10/11 10:29:00;;;;;;;3.30;0.97;;;;;;;36.83;15.13;101050.44;30987247;28;96831;-67
2022/10/11 10:44:01;;;;;;;4.60;1.00;;;;;;;46.37;10.32;101056.09;30984492;28;97273;-59
2022/10/11 10:59:05;;;;;;;5.83;1.00;;;;;;;49.09;8.26;101043.97;30986094;28;97193;-62
2022/10/11 11:14:17;;;;;;;4.77;1.10;;;;;;;51.91;6.45;101041.78;30982459;28;97022;-59
2022/10/11 11:29:23;;;;;;;5.47;1.40;;;;;;;53.06;6.13;101037.59;30978945;28;97587;-61
2022/10/11 11:44:28;;;;;;;6.60;1.20;;;;;;;49.81;7.26;101032.00;30975548;28;97857;-65
2022/10/11 11:59:40;;;;;;;5.97;1.23;;;;;;;50.06;6.61;101028.94;30919689;28;97226;-60
2022/10/11 12:14:41;;;;;;;6.17;1.53;;;;;;;44.53;9.01;101034.88;30853886;28;97233;-62
2022/10/11 12:29:45;;;;;;;7.53;1.48;;;;;;;46.12;7.84;101026.63;30851040;28;97495;-64
2022/10/11 12:45:12;;;;;;;4.27;1.30;;;;;;;42.83;8.65;101026.63;30848155;28;96788;-59
2022/10/11 13:00:28;;;;;;;14.60;2.83;;;;;;;41.27;9.68;101024.31;30846664;28;97564;-60
2022/10/11 13:15:30;;;;;;;6.63;1.53;;;;;;;45.76;7.86;101025.59;30845733;28;97235;-60
2022/10/11 13:30:33;;;;;;;3.65;1.20;;;;;;;44.90;8.31;101017.22;30847670;28;97022;-60
2022/10/11 13:45:35;;;;;;;4.47;0.80;;;;;;;45.87;7.59;101011.59;30847719;28;97254;-60
2022/10/11 14:00:38;;;;;;;5.67;1.03;;;;;;;43.25;8.59;101002.53;30845836;28;97292;-59
2022/10/11 14:15:38;;;;;;;5.47;1.10;;;;;;;42.66;8.91;101010.28;30827858;28;97743;-61
2022/10/11 14:30:40;;;;;;;5.60;1.63;;;;;;;41.35;9.86;101006.56;30981865;28;97041;-60
2022/10/11 14:45:41;;;;;;;9.70;3.07;;;;;;;38.35;11.50;101001.09;30972431;28;97298;-61
2022/10/11 15:00:42;;;;;;;5.97;1.92;;;;;;;34.79;13.89;101008.75;30985243;28;97432;-64
2022/10/11 15:15:43;;;;;;;8.05;1.50;;;;;;;30.65;16.67;101009.84;30959450;28;97347;-61
2022/10/11 15:30:43;;;;;;;4.55;1.10;;;;;;;24.27;21.66;101017.94;30971937;28;97391;-60
2022/10/11 15:45:44;;;;;;;5.95;1.20;;;;;;;20.47;25.84;101023.28;30969300;28;114215;-61
2022/10/11 16:00:46;;;;;;;8.15;1.70;;;;;;;17.61;29.76;101028.06;30968336;28;96807;-65
2022/10/11 16:15:47;;;;;;;6.23;2.13;;;;;;;15.74;33.24;101047.22;30914890;28;97884;-61
2022/10/11 16:30:48;;;;;;;19.90;3.13;;;;;;;14.40;36.09;101052.00;30844562;28;96986;-62
2022/10/11 16:45:55;;;;;;;12.15;2.92;;;;;;;13.30;39.38;101063.25;30846510;28;106574;-61
2022/10/11 17:00:56;;;;;;;9.63;2.77;;;;;;;12.38;42.52;101069.38;30850570;28;96969;-63
2022/10/11 17:15:56;;;;;;;15.18;2.53;;;;;;;11.58;44.21;101086.41;30849972;28;111854;-61
2022/10/11 17:30:57;;;;;;;10.65;3.92;;;;;;;10.93;46.02;101095.47;30849516;28;96767;-61
2022/10/11 17:45:59;;;;;;;14.50;5.78;;;;;;;10.43;48.08;101099.41;30845244;28;97621;-61
2022/10/11 18:01:04;;;;;;;14.37;5.60;;;;;;;10.09;49.48;101099.91;30850412;28;97605;-61
2022/10/11 18:16:05;;;;;;;12.67;4.77;;;;;;;9.70;51.31;101099.97;30861847;28;99058;-62
2022/10/11 18:31:07;;;;;;;22.65;7.68;;;;;;;9.34;53.04;101109.53;30864966;28;96783;-60
2022/10/11 18:46:10;;;;;;;24.43;10.03;;;;;;;9.07;54.65;101105.72;30976472;28;97258;-61
2022/10/11 19:01:14;;;;;;;24.53;10.20;;;;;;;8.72;55.79;101105.25;30934551;28;96722;-60
2022/10/11 19:16:16;;;;;;;;;;;;;;;8.40;56.81;101111.53;30852771;28;97679;-61
2022/10/11 19:31:16;;;;;;;19.47;10.20;;;;;;;7.99;58.62;101125.72;30858139;28;97246;-63
2022/10/11 19:46:19;;;;;;;31.90;14.98;;;;;;;7.73;59.13;101134.06;30859617;28;97339;-62
2022/10/11 20:01:23;;;;;;;33.13;13.60;;;;;;;7.51;60.18;101138.50;30859914;28;96555;-67
2022/10/11 20:16:26;;;;;;;28.27;12.83;;;;;;;7.40;61.49;101141.19;30856844;28;96786;-62
2022/10/11 20:31:29;;;;;;;29.77;13.73;;;;;;;7.14;62.12;101140.69;30856366;28;97411;-64
2022/10/11 20:46:33;;;;;;;32.27;14.70;;;;;;;6.94;63.01;101145.75;30893802;28;97285;-62
2022/10/11 21:01:36;;;;;;;29.10;13.93;;;;;;;6.79;63.63;101147.81;30976189;28;97230;-61
2022/10/11 21:16:37;;;;;;;41.73;17.40;;;;;;;6.47;64.65;101153.03;30977022;28;96626;-63
2022/10/11 21:31:37;;;;;;;31.63;15.88;;;;;;;6.22;64.83;101155.78;30984798;28;97908;-64
2022/10/11 21:46:37;;;;;;;32.47;15.73;;;;;;;6.13;65.74;101160.94;30996980;28;97091;-61
2022/10/11 22:01:39;;;;;;;29.52;13.55;;;;;;;5.97;66.35;101150.63;30995516;28;110777;-70
2022/10/11 22:16:39;;;;;;;29.58;13.77;;;;;;;5.88;66.74;101154.84;30995028;28;96728;-64
2022/10/11 22:31:40;;;;;;;29.52;14.00;;;;;;;5.72;67.17;101155.13;30994849;28;97087;-66
2022/10/11 22:46:40;;;;;;;34.17;15.35;;;;;;;5.65;67.73;101152.09;30991975;28;96707;-61
2022/10/11 23:01:40;;;;;;;34.33;15.75;;;;;;;5.59;68.03;101156.06;30990837;28;97181;-66
2022/10/11 23:16:41;;;;;;;33.53;17.13;;;;;;;5.49;68.65;101152.38;30988905;28;99828;-62
2022/10/11 23:31:41;;;;;;;30.48;14.23;;;;;;;5.40;69.08;101151.28;30987269;28;113782;-65
2022/10/11 23:46:41;;;;;;;24.42;13.93;;;;;;;5.35;69.58;101156.06;30986138;28;97394;-69
